sensor_id;sensor_type;location;lat;lon;timestamp;P1;durP1;ratioP1;P2;durP2;ratioP2
70588;SDS011;58152;49.202;18.744;2023-01-28T00:02:05;82.18;;;49.30;;
70588;SDS011;58152;49.202;18.744;2023-01-28T00:04:30;50.70;;;29.90;;
70588;SDS011;58152;49.202;18.744;2023-01-28T00:06:56;34.42;;;19.52;;
70588;SDS011;58152;49.202;18.744;2023-01-28T00:09:21;23.27;;;13.82;;
70588;SDS011;58152;49.202;18.744;2023-01-28T00:11:46;22.50;;;12.75;;
70588;SDS011;58152;49.202;18.744;2023-01-28T00:14:12;20.40;;;12.15;;
70588;SDS011;58152;49.202;18.744;2023-01-28T00:16:37;21.23;;;12.00;;
70588;SDS011;58152;49.202;18.744;2023-01-28T00:19:03;19.80;;;11.38;;
70588;SDS011;58152;49.202;18.744;2023-01-28T00:21:28;19.17;;;11.35;;
70588;SDS011;58152;49.202;18.744;2023-01-28T00:23:54;18.30;;;10.75;;
70588;SDS011;58152;49.202;18.744;2023-01-28T00:26:20;21.33;;;12.07;;
70588;SDS011;58152;49.202;18.744;2023-01-28T00:28:47;18.48;;;12.02;;
70588;SDS011;58152;49.202;18.744;2023-01-28T00:31:14;18.98;;;11.15;;
70588;SDS011;58152;49.202;18.744;2023-01-28T00:33:45;15.68;;;10.10;;
70588;SDS011;58152;49.202;18.744;2023-01-28T00:36:12;16.40;;;11.02;;
70588;SDS011;58152;49.202;18.744;2023-01-28T00:38:38;19.75;;;11.55;;
70588;SDS011;58152;49.202;18.744;2023-01-28T00:41:11;17.20;;;9.90;;
70588;SDS011;58152;49.202;18.744;2023-01-28T00:43:38;20.63;;;11.15;;
70588;SDS011;58152;49.202;18.744;2023-01-28T00:46:05;19.20;;;11.40;;
70588;SDS011;58152;49.202;18.744;2023-01-28T00:48:34;18.95;;;10.70;;
70588;SDS011;58152;49.202;18.744;2023-01-28T00:51:01;17.67;;;10.27;;
70588;SDS011;58152;49.202;18.744;2023-01-28T00:53:27;20.23;;;11.98;;
70588;SDS011;58152;49.202;18.744;2023-01-28T00:55:52;18.50;;;11.40;;
70588;SDS011;58152;49.202;18.744;2023-01-28T00:58:18;18.98;;;11.18;;
70588;SDS011;58152;49.202;18.744;2023-01-28T01:00:44;16.55;;;9.70;;
70588;SDS011;58152;49.202;18.744;2023-01-28T01:03:10;19.55;;;11.73;;
70588;SDS011;58152;49.202;18.744;2023-01-28T01:05:35;17.05;;;11.48;;
70588;SDS011;58152;49.202;18.744;2023-01-28T01:08:01;16.70;;;10.65;;
70588;SDS011;58152;49.202;18.744;2023-01-28T01:10:27;18.85;;;11.38;;
70588;SDS011;58152;49.202;18.744;2023-01-28T01:12:52;18.83;;;11.50;;
70588;SDS011;58152;49.202;18.744;2023-01-28T01:15:18;22.00;;;12.48;;
70588;SDS011;58152;49.202;18.744;2023-01-28T01:17:45;17.08;;;11.85;;
70588;SDS011;58152;49.202;18.744;2023-01-28T01:20:14;17.83;;;11.55;;
70588;SDS011;58152;49.202;18.744;2023-01-28T01:22:41;16.02;;;10.43;;
70588;SDS011;58152;49.202;18.744;2023-01-28T01:25:07;15.48;;;9.98;;
70588;SDS011;58152;49.202;18.744;2023-01-28T01:27:33;19.45;;;11.35;;
70588;SDS011;58152;49.202;18.744;2023-01-28T01:29:59;16.98;;;10.73;;
70588;SDS011;58152;49.202;18.744;2023-01-28T01:32:27;18.75;;;10.85;;
70588;SDS011;58152;49.202;18.744;2023-01-28T01:34:54;16.85;;;10.00;;
70588;SDS011;58152;49.202;18.744;2023-01-28T01:37:20;19.23;;;11.00;;
70588;SDS011;58152;49.202;18.744;2023-01-28T01:39:45;22.05;;;11.43;;
70588;SDS011;58152;49.202;18.744;2023-01-28T01:42:11;17.88;;;11.40;;
70588;SDS011;58152;49.202;18.744;2023-01-28T01:47:31;20.52;;;11.02;;
70588;SDS011;58152;49.202;18.744;2023-01-28T01:50:23;15.80;;;9.90;;
70588;SDS011;58152;49.202;18.744;2023-01-28T01:52:56;17.25;;;10.82;;
70588;SDS011;58152;49.202;18.744;2023-01-28T01:55:26;15.02;;;9.88;;
70588;SDS011;58152;49.202;18.744;2023-01-28T01:57:55;15.02;;;9.70;;
70588;SDS011;58152;49.202;18.744;2023-01-28T02:00:24;15.20;;;9.55;;
70588;SDS011;58152;49.202;18.744;2023-01-28T02:02:50;17.30;;;10.32;;
70588;SDS011;58152;49.202;18.744;2023-01-28T02:05:18;16.13;;;10.85;;
70588;SDS011;58152;49.202;18.744;2023-01-28T02:07:46;17.15;;;10.32;;
70588;SDS011;58152;49.202;18.744;2023-01-28T02:10:13;18.58;;;10.48;;
70588;SDS011;58152;49.202;18.744;2023-01-28T02:12:41;21.40;;;12.15;;
70588;SDS011;58152;49.202;18.744;2023-01-28T02:15:19;19.27;;;11.20;;
70588;SDS011;58152;49.202;18.744;2023-01-28T02:17:46;17.15;;;10.10;;
70588;SDS011;58152;49.202;18.744;2023-01-28T02:20:27;17.13;;;10.48;;
70588;SDS011;58152;49.202;18.744;2023-01-28T02:28:45;16.48;;;10.25;;
70588;SDS011;58152;49.202;18.744;2023-01-28T02:37:02;16.17;;;10.38;;
70588;SDS011;58152;49.202;18.744;2023-01-28T02:39:34;18.05;;;11.30;;
70588;SDS011;58152;49.202;18.744;2023-01-28T02:44:34;17.33;;;10.95;;
70588;SDS011;58152;49.202;18.744;2023-01-28T02:47:00;19.90;;;11.43;;
70588;SDS011;58152;49.202;18.744;2023-01-28T02:55:12;18.35;;;10.68;;
70588;SDS011;58152;49.202;18.744;2023-01-28T02:57:52;16.55;;;10.68;;
70588;SDS011;58152;49.202;18.744;2023-01-28T03:02:57;18.98;;;11.15;;
70588;SDS011;58152;49.202;18.744;2023-01-28T03:05:51;22.35;;;11.70;;
70588;SDS011;58152;49.202;18.744;2023-01-28T03:08:51;18.77;;;10.80;;
70588;SDS011;58152;49.202;18.744;2023-01-28T03:11:39;18.13;;;11.65;;
70588;SDS011;58152;49.202;18.744;2023-01-28T03:14:26;17.63;;;10.90;;
70588;SDS011;58152;49.202;18.744;2023-01-28T03:20:24;22.02;;;12.60;;
70588;SDS011;58152;49.202;18.744;2023-01-28T03:23:13;17.83;;;10.40;;
70588;SDS011;58152;49.202;18.744;2023-01-28T03:26:00;18.13;;;10.80;;
70588;SDS011;58152;49.202;18.744;2023-01-28T03:28:46;16.67;;;10.43;;
70588;SDS011;58152;49.202;18.744;2023-01-28T03:31:32;17.42;;;10.68;;
70588;SDS011;58152;49.202;18.744;2023-01-28T03:34:19;17.73;;;10.30;;
70588;SDS011;58152;49.202;18.744;2023-01-28T03:37:04;15.20;;;9.05;;
70588;SDS011;58152;49.202;18.744;2023-01-28T03:39:29;18.25;;;10.90;;
70588;SDS011;58152;49.202;18.744;2023-01-28T03:41:59;18.38;;;11.57;;
70588;SDS011;58152;49.202;18.744;2023-01-28T03:44:29;16.92;;;10.05;;
70588;SDS011;58152;49.202;18.744;2023-01-28T03:47:13;17.55;;;10.75;;
70588;SDS011;58152;49.202;18.744;2023-01-28T03:49:49;17.05;;;10.68;;
70588;SDS011;58152;49.202;18.744;2023-01-28T03:52:16;15.25;;;10.05;;
70588;SDS011;58152;49.202;18.744;2023-01-28T03:54:45;18.80;;;10.93;;
70588;SDS011;58152;49.202;18.744;2023-01-28T03:57:13;20.63;;;11.80;;
70588;SDS011;58152;49.202;18.744;2023-01-28T03:59:39;22.42;;;12.18;;
70588;SDS011;58152;49.202;18.744;2023-01-28T04:02:05;19.13;;;11.45;;
70588;SDS011;58152;49.202;18.744;2023-01-28T04:04:31;20.02;;;10.77;;
70588;SDS011;58152;49.202;18.744;2023-01-28T04:06:57;19.58;;;11.45;;
70588;SDS011;58152;49.202;18.744;2023-01-28T04:09:23;18.85;;;11.25;;
70588;SDS011;58152;49.202;18.744;2023-01-28T04:11:48;19.70;;;11.93;;
70588;SDS011;58152;49.202;18.744;2023-01-28T04:14:15;18.52;;;10.43;;
70588;SDS011;58152;49.202;18.744;2023-01-28T04:16:42;16.17;;;10.88;;
70588;SDS011;58152;49.202;18.744;2023-01-28T04:19:08;17.27;;;10.73;;
70588;SDS011;58152;49.202;18.744;2023-01-28T04:21:34;14.27;;;9.68;;
70588;SDS011;58152;49.202;18.744;2023-01-28T04:23:59;16.77;;;9.93;;
70588;SDS011;58152;49.202;18.744;2023-01-28T04:26:26;16.05;;;10.10;;
70588;SDS011;58152;49.202;18.744;2023-01-28T04:28:52;17.10;;;9.85;;
70588;SDS011;58152;49.202;18.744;2023-01-28T04:31:17;18.90;;;11.07;;
70588;SDS011;58152;49.202;18.744;2023-01-28T04:33:43;15.63;;;11.00;;
70588;SDS011;58152;49.202;18.744;2023-01-28T04:36:08;17.33;;;10.48;;
70588;SDS011;58152;49.202;18.744;2023-01-28T04:38:33;16.58;;;10.73;;
70588;SDS011;58152;49.202;18.744;2023-01-28T04:40:59;19.67;;;11.77;;
70588;SDS011;58152;49.202;18.744;2023-01-28T04:43:24;17.88;;;10.52;;
70588;SDS011;58152;49.202;18.744;2023-01-28T04:45:50;14.13;;;9.23;;
70588;SDS011;58152;49.202;18.744;2023-01-28T04:48:15;17.17;;;10.57;;
70588;SDS011;58152;49.202;18.744;2023-01-28T04:50:41;17.15;;;9.57;;
70588;SDS011;58152;49.202;18.744;2023-01-28T04:53:07;17.90;;;9.43;;
70588;SDS011;58152;49.202;18.744;2023-01-28T04:55:34;17.42;;;10.45;;
70588;SDS011;58152;49.202;18.744;2023-01-28T04:57:59;17.10;;;11.15;;
70588;SDS011;58152;49.202;18.744;2023-01-28T05:00:24;15.80;;;9.63;;
70588;SDS011;58152;49.202;18.744;2023-01-28T05:02:50;16.42;;;10.85;;
70588;SDS011;58152;49.202;18.744;2023-01-28T05:05:15;20.33;;;12.18;;
70588;SDS011;58152;49.202;18.744;2023-01-28T05:07:41;18.38;;;10.80;;
70588;SDS011;58152;49.202;18.744;2023-01-28T05:10:07;17.60;;;10.57;;
70588;SDS011;58152;49.202;18.744;2023-01-28T05:12:33;17.60;;;10.48;;
70588;SDS011;58152;49.202;18.744;2023-01-28T05:14:58;18.52;;;10.27;;
70588;SDS011;58152;49.202;18.744;2023-01-28T05:17:25;16.52;;;9.52;;
70588;SDS011;58152;49.202;18.744;2023-01-28T05:19:51;16.63;;;8.98;;
70588;SDS011;58152;49.202;18.744;2023-01-28T05:22:16;15.50;;;10.43;;
70588;SDS011;58152;49.202;18.744;2023-01-28T05:24:42;16.13;;;9.00;;
70588;SDS011;58152;49.202;18.744;2023-01-28T05:27:07;16.02;;;9.27;;
70588;SDS011;58152;49.202;18.744;2023-01-28T05:29:33;17.20;;;10.48;;
70588;SDS011;58152;49.202;18.744;2023-01-28T05:31:58;18.23;;;10.85;;
70588;SDS011;58152;49.202;18.744;2023-01-28T05:34:23;15.27;;;10.15;;
70588;SDS011;58152;49.202;18.744;2023-01-28T05:36:49;19.95;;;11.85;;
70588;SDS011;58152;49.202;18.744;2023-01-28T05:39:14;16.90;;;11.07;;
70588;SDS011;58152;49.202;18.744;2023-01-28T05:41:40;18.90;;;10.18;;
70588;SDS011;58152;49.202;18.744;2023-01-28T05:44:05;17.98;;;10.20;;
70588;SDS011;58152;49.202;18.744;2023-01-28T05:46:31;18.45;;;10.68;;
70588;SDS011;58152;49.202;18.744;2023-01-28T05:48:56;19.10;;;12.40;;
70588;SDS011;58152;49.202;18.744;2023-01-28T05:51:21;16.77;;;10.50;;
70588;SDS011;58152;49.202;18.744;2023-01-28T05:53:47;18.42;;;11.05;;
70588;SDS011;58152;49.202;18.744;2023-01-28T05:56:12;16.65;;;10.00;;
70588;SDS011;58152;49.202;18.744;2023-01-28T05:58:38;18.05;;;11.10;;
70588;SDS011;58152;49.202;18.744;2023-01-28T06:01:03;15.07;;;10.05;;
70588;SDS011;58152;49.202;18.744;2023-01-28T06:03:28;19.23;;;11.82;;
70588;SDS011;58152;49.202;18.744;2023-01-28T06:05:54;19.25;;;10.98;;
70588;SDS011;58152;49.202;18.744;2023-01-28T06:08:19;17.67;;;10.30;;
70588;SDS011;58152;49.202;18.744;2023-01-28T06:10:45;17.27;;;10.43;;
70588;SDS011;58152;49.202;18.744;2023-01-28T06:13:11;17.52;;;10.65;;
70588;SDS011;58152;49.202;18.744;2023-01-28T06:15:36;18.55;;;10.85;;
70588;SDS011;58152;49.202;18.744;2023-01-28T06:18:02;20.45;;;12.32;;
70588;SDS011;58152;49.202;18.744;2023-01-28T06:20:27;19.52;;;11.57;;
70588;SDS011;58152;49.202;18.744;2023-01-28T06:22:53;18.20;;;10.90;;
70588;SDS011;58152;49.202;18.744;2023-01-28T06:25:18;21.63;;;11.98;;
70588;SDS011;58152;49.202;18.744;2023-01-28T06:27:44;20.60;;;12.43;;
70588;SDS011;58152;49.202;18.744;2023-01-28T06:30:10;19.10;;;12.18;;
70588;SDS011;58152;49.202;18.744;2023-01-28T06:32:39;18.13;;;10.95;;
70588;SDS011;58152;49.202;18.744;2023-01-28T06:35:08;17.20;;;9.95;;
70588;SDS011;58152;49.202;18.744;2023-01-28T06:37:37;20.38;;;11.93;;
70588;SDS011;58152;49.202;18.744;2023-01-28T06:40:03;18.55;;;11.00;;
70588;SDS011;58152;49.202;18.744;2023-01-28T06:42:29;18.60;;;11.15;;
70588;SDS011;58152;49.202;18.744;2023-01-28T06:44:54;21.05;;;11.43;;
70588;SDS011;58152;49.202;18.744;2023-01-28T06:47:20;18.90;;;10.98;;
70588;SDS011;58152;49.202;18.744;2023-01-28T06:49:45;20.30;;;11.68;;
70588;SDS011;58152;49.202;18.744;2023-01-28T06:52:11;18.60;;;10.70;;
70588;SDS011;58152;49.202;18.744;2023-01-28T06:54:36;21.20;;;11.80;;
70588;SDS011;58152;49.202;18.744;2023-01-28T06:57:01;17.95;;;10.82;;
70588;SDS011;58152;49.202;18.744;2023-01-28T07:01:52;18.48;;;10.32;;
70588;SDS011;58152;49.202;18.744;2023-01-28T07:04:17;18.85;;;11.57;;
70588;SDS011;58152;49.202;18.744;2023-01-28T07:06:43;16.73;;;10.57;;
70588;SDS011;58152;49.202;18.744;2023-01-28T07:09:08;19.35;;;11.02;;
70588;SDS011;58152;49.202;18.744;2023-01-28T07:11:34;21.23;;;11.85;;
70588;SDS011;58152;49.202;18.744;2023-01-28T07:13:59;17.65;;;10.80;;
70588;SDS011;58152;49.202;18.744;2023-01-28T07:16:25;17.73;;;9.75;;
70588;SDS011;58152;49.202;18.744;2023-01-28T07:18:50;17.35;;;11.18;;
70588;SDS011;58152;49.202;18.744;2023-01-28T07:21:16;19.17;;;11.13;;
70588;SDS011;58152;49.202;18.744;2023-01-28T07:23:41;15.35;;;10.13;;
70588;SDS011;58152;49.202;18.744;2023-01-28T07:26:07;15.25;;;10.25;;
70588;SDS011;58152;49.202;18.744;2023-01-28T07:28:32;15.63;;;9.38;;
70588;SDS011;58152;49.202;18.744;2023-01-28T07:30:58;16.92;;;10.73;;
70588;SDS011;58152;49.202;18.744;2023-01-28T07:33:23;16.95;;;9.50;;
70588;SDS011;58152;49.202;18.744;2023-01-28T07:35:49;15.75;;;10.07;;
70588;SDS011;58152;49.202;18.744;2023-01-28T07:38:14;19.27;;;11.45;;
70588;SDS011;58152;49.202;18.744;2023-01-28T07:40:40;20.55;;;12.65;;
70588;SDS011;58152;49.202;18.744;2023-01-28T07:43:06;16.50;;;10.25;;
70588;SDS011;58152;49.202;18.744;2023-01-28T07:45:32;21.50;;;11.27;;
70588;SDS011;58152;49.202;18.744;2023-01-28T07:47:59;22.77;;;13.15;;
70588;SDS011;58152;49.202;18.744;2023-01-28T07:50:26;24.40;;;14.27;;
70588;SDS011;58152;49.202;18.744;2023-01-28T07:52:53;24.23;;;14.73;;
70588;SDS011;58152;49.202;18.744;2023-01-28T07:55:20;23.80;;;12.70;;
70588;SDS011;58152;49.202;18.744;2023-01-28T07:57:49;22.38;;;13.70;;
70588;SDS011;58152;49.202;18.744;2023-01-28T08:00:18;21.27;;;12.35;;
70588;SDS011;58152;49.202;18.744;2023-01-28T08:02:45;18.48;;;10.80;;
70588;SDS011;58152;49.202;18.744;2023-01-28T08:05:21;18.60;;;11.40;;
70588;SDS011;58152;49.202;18.744;2023-01-28T08:07:47;17.67;;;11.25;;
70588;SDS011;58152;49.202;18.744;2023-01-28T08:10:13;15.43;;;11.15;;
70588;SDS011;58152;49.202;18.744;2023-01-28T08:12:41;18.05;;;10.32;;
70588;SDS011;58152;49.202;18.744;2023-01-28T08:15:14;17.67;;;10.90;;
70588;SDS011;58152;49.202;18.744;2023-01-28T08:17:40;15.70;;;9.88;;
70588;SDS011;58152;49.202;18.744;2023-01-28T08:20:05;17.17;;;10.20;;
70588;SDS011;58152;49.202;18.744;2023-01-28T08:22:31;16.23;;;9.98;;
70588;SDS011;58152;49.202;18.744;2023-01-28T08:24:57;18.33;;;10.95;;
70588;SDS011;58152;49.202;18.744;2023-01-28T08:27:22;17.83;;;10.93;;
70588;SDS011;58152;49.202;18.744;2023-01-28T08:29:48;17.55;;;10.77;;
70588;SDS011;58152;49.202;18.744;2023-01-28T08:32:13;19.80;;;12.93;;
70588;SDS011;58152;49.202;18.744;2023-01-28T08:34:39;16.00;;;9.63;;
70588;SDS011;58152;49.202;18.744;2023-01-28T08:37:04;18.80;;;11.63;;
70588;SDS011;58152;49.202;18.744;2023-01-28T08:39:30;17.75;;;11.07;;
70588;SDS011;58152;49.202;18.744;2023-01-28T08:41:55;18.58;;;10.75;;
70588;SDS011;58152;49.202;18.744;2023-01-28T08:44:21;19.42;;;12.05;;
70588;SDS011;58152;49.202;18.744;2023-01-28T08:46:46;16.75;;;10.32;;
70588;SDS011;58152;49.202;18.744;2023-01-28T08:49:11;18.73;;;11.38;;
70588;SDS011;58152;49.202;18.744;2023-01-28T08:51:37;18.08;;;12.00;;
70588;SDS011;58152;49.202;18.744;2023-01-28T08:54:02;20.38;;;12.77;;
70588;SDS011;58152;49.202;18.744;2023-01-28T08:56:28;17.40;;;11.35;;
70588;SDS011;58152;49.202;18.744;2023-01-28T08:58:54;19.38;;;11.63;;
70588;SDS011;58152;49.202;18.744;2023-01-28T09:01:20;22.08;;;13.48;;
70588;SDS011;58152;49.202;18.744;2023-01-28T09:03:45;17.95;;;11.50;;
70588;SDS011;58152;49.202;18.744;2023-01-28T09:06:10;21.30;;;11.95;;
70588;SDS011;58152;49.202;18.744;2023-01-28T09:08:36;19.63;;;11.82;;
70588;SDS011;58152;49.202;18.744;2023-01-28T09:11:02;20.40;;;12.52;;
70588;SDS011;58152;49.202;18.744;2023-01-28T09:13:27;19.58;;;11.90;;
70588;SDS011;58152;49.202;18.744;2023-01-28T09:15:54;20.38;;;12.07;;
70588;SDS011;58152;49.202;18.744;2023-01-28T09:18:20;21.27;;;11.95;;
70588;SDS011;58152;49.202;18.744;2023-01-28T09:20:46;18.70;;;11.68;;
70588;SDS011;58152;49.202;18.744;2023-01-28T09:23:11;17.27;;;11.85;;
70588;SDS011;58152;49.202;18.744;2023-01-28T09:25:37;22.17;;;13.10;;
70588;SDS011;58152;49.202;18.744;2023-01-28T09:28:03;20.58;;;11.48;;
70588;SDS011;58152;49.202;18.744;2023-01-28T09:30:29;18.23;;;12.25;;
70588;SDS011;58152;49.202;18.744;2023-01-28T09:32:55;19.33;;;12.60;;
70588;SDS011;58152;49.202;18.744;2023-01-28T09:35:24;23.98;;;13.32;;
70588;SDS011;58152;49.202;18.744;2023-01-28T09:37:50;20.27;;;12.50;;
70588;SDS011;58152;49.202;18.744;2023-01-28T09:40:17;21.35;;;12.75;;
70588;SDS011;58152;49.202;18.744;2023-01-28T09:43:08;21.92;;;13.13;;
70588;SDS011;58152;49.202;18.744;2023-01-28T09:45:45;21.48;;;13.02;;
70588;SDS011;58152;49.202;18.744;2023-01-28T09:48:23;20.15;;;13.00;;
70588;SDS011;58152;49.202;18.744;2023-01-28T09:50:56;22.50;;;12.77;;
70588;SDS011;58152;49.202;18.744;2023-01-28T09:53:25;23.70;;;14.80;;
70588;SDS011;58152;49.202;18.744;2023-01-28T09:56:04;20.25;;;12.93;;
70588;SDS011;58152;49.202;18.744;2023-01-28T09:58:36;22.92;;;14.00;;
70588;SDS011;58152;49.202;18.744;2023-01-28T10:09:41;19.75;;;11.90;;
70588;SDS011;58152;49.202;18.744;2023-01-28T10:17:31;21.55;;;12.98;;
70588;SDS011;58152;49.202;18.744;2023-01-28T10:22:40;21.80;;;13.63;;
70588;SDS011;58152;49.202;18.744;2023-01-28T10:25:13;21.15;;;14.13;;
70588;SDS011;58152;49.202;18.744;2023-01-28T10:27:42;22.38;;;13.25;;
70588;SDS011;58152;49.202;18.744;2023-01-28T10:30:20;19.85;;;12.30;;
70588;SDS011;58152;49.202;18.744;2023-01-28T10:32:55;22.35;;;13.70;;
70588;SDS011;58152;49.202;18.744;2023-01-28T10:35:21;21.10;;;12.93;;
70588;SDS011;58152;49.202;18.744;2023-01-28T10:37:48;25.15;;;13.77;;
70588;SDS011;58152;49.202;18.744;2023-01-28T10:40:17;22.35;;;13.10;;
70588;SDS011;58152;49.202;18.744;2023-01-28T10:42:43;23.50;;;13.80;;
70588;SDS011;58152;49.202;18.744;2023-01-28T10:47:43;22.88;;;14.20;;
70588;SDS011;58152;49.202;18.744;2023-01-28T10:50:14;19.23;;;12.88;;
70588;SDS011;58152;49.202;18.744;2023-01-28T10:52:55;21.02;;;13.13;;
70588;SDS011;58152;49.202;18.744;2023-01-28T10:55:21;23.67;;;13.30;;
70588;SDS011;58152;49.202;18.744;2023-01-28T10:57:51;22.83;;;14.35;;
70588;SDS011;58152;49.202;18.744;2023-01-28T11:00:28;29.88;;;14.57;;
70588;SDS011;58152;49.202;18.744;2023-01-28T11:03:01;21.60;;;13.63;;
70588;SDS011;58152;49.202;18.744;2023-01-28T11:05:29;21.05;;;12.57;;
70588;SDS011;58152;49.202;18.744;2023-01-28T11:08:14;24.85;;;15.50;;
70588;SDS011;58152;49.202;18.744;2023-01-28T11:10:42;22.60;;;14.75;;
70588;SDS011;58152;49.202;18.744;2023-01-28T11:13:15;22.85;;;13.55;;
70588;SDS011;58152;49.202;18.744;2023-01-28T11:15:49;23.88;;;14.10;;
70588;SDS011;58152;49.202;18.744;2023-01-28T11:18:26;21.70;;;13.25;;
70588;SDS011;58152;49.202;18.744;2023-01-28T11:20:56;21.45;;;13.95;;
70588;SDS011;58152;49.202;18.744;2023-01-28T11:23:31;23.23;;;13.52;;
70588;SDS011;58152;49.202;18.744;2023-01-28T11:28:40;22.48;;;13.90;;
70588;SDS011;58152;49.202;18.744;2023-01-28T11:31:09;23.77;;;14.13;;
70588;SDS011;58152;49.202;18.744;2023-01-28T11:33:41;21.42;;;13.52;;
70588;SDS011;58152;49.202;18.744;2023-01-28T11:36:19;22.90;;;13.18;;
70588;SDS011;58152;49.202;18.744;2023-01-28T11:41:16;21.83;;;12.15;;
70588;SDS011;58152;49.202;18.744;2023-01-28T11:44:22;20.40;;;11.73;;
70588;SDS011;58152;49.202;18.744;2023-01-28T11:46:57;24.00;;;14.43;;
70588;SDS011;58152;49.202;18.744;2023-01-28T11:50:13;21.55;;;12.80;;
70588;SDS011;58152;49.202;18.744;2023-01-28T11:52:26;21.05;;;12.43;;
70588;SDS011;58152;49.202;18.744;2023-01-28T12:05:49;40.15;;;23.67;;
70588;SDS011;58152;49.202;18.744;2023-01-28T12:11:19;21.75;;;13.77;;
70588;SDS011;58152;49.202;18.744;2023-01-28T12:28:47;21.38;;;12.82;;
70588;SDS011;58152;49.202;18.744;2023-01-28T12:34:21;19.50;;;12.18;;
70588;SDS011;58152;49.202;18.744;2023-01-28T12:37:32;17.48;;;11.55;;
70588;SDS011;58152;49.202;18.744;2023-01-28T12:42:46;20.80;;;11.82;;
70588;SDS011;58152;49.202;18.744;2023-01-28T12:45:18;20.58;;;11.98;;
70588;SDS011;58152;49.202;18.744;2023-01-28T12:47:52;18.58;;;12.05;;
70588;SDS011;58152;49.202;18.744;2023-01-28T12:50:31;18.15;;;11.52;;
70588;SDS011;58152;49.202;18.744;2023-01-28T12:53:04;16.80;;;10.93;;
70588;SDS011;58152;49.202;18.744;2023-01-28T12:58:11;19.40;;;12.43;;
70588;SDS011;58152;49.202;18.744;2023-01-28T13:00:45;21.52;;;12.93;;
70588;SDS011;58152;49.202;18.744;2023-01-28T13:05:42;21.40;;;13.00;;
70588;SDS011;58152;49.202;18.744;2023-01-28T13:08:20;19.73;;;12.38;;
70588;SDS011;58152;49.202;18.744;2023-01-28T13:10:48;18.88;;;11.88;;
70588;SDS011;58152;49.202;18.744;2023-01-28T13:15:46;19.50;;;11.65;;
70588;SDS011;58152;49.202;18.744;2023-01-28T13:20:59;73.22;;;41.78;;
70588;SDS011;58152;49.202;18.744;2023-01-28T13:23:37;96.15;;;58.15;;
70588;SDS011;58152;49.202;18.744;2023-01-28T13:28:48;45.65;;;26.67;;
70588;SDS011;58152;49.202;18.744;2023-01-28T13:31:19;30.83;;;18.90;;
70588;SDS011;58152;49.202;18.744;2023-01-28T13:36:25;20.10;;;12.57;;
70588;SDS011;58152;49.202;18.744;2023-01-28T13:41:42;21.92;;;11.50;;
70588;SDS011;58152;49.202;18.744;2023-01-28T13:47:11;17.83;;;11.15;;
70588;SDS011;58152;49.202;18.744;2023-01-28T13:49:46;17.05;;;10.73;;
70588;SDS011;58152;49.202;18.744;2023-01-28T13:52:15;17.67;;;11.18;;
70588;SDS011;58152;49.202;18.744;2023-01-28T13:54:58;17.98;;;11.48;;
70588;SDS011;58152;49.202;18.744;2023-01-28T13:57:52;18.52;;;11.63;;
70588;SDS011;58152;49.202;18.744;2023-01-28T14:00:40;20.00;;;12.05;;
70588;SDS011;58152;49.202;18.744;2023-01-28T14:19:31;23.77;;;14.18;;
70588;SDS011;58152;49.202;18.744;2023-01-28T14:22:05;23.05;;;12.82;;
70588;SDS011;58152;49.202;18.744;2023-01-28T14:24:33;22.95;;;13.45;;
70588;SDS011;58152;49.202;18.744;2023-01-28T14:27:07;19.55;;;12.88;;
70588;SDS011;58152;49.202;18.744;2023-01-28T14:32:27;22.38;;;13.10;;
70588;SDS011;58152;49.202;18.744;2023-01-28T14:34:54;24.30;;;12.93;;
70588;SDS011;58152;49.202;18.744;2023-01-28T14:37:29;27.48;;;14.70;;
70588;SDS011;58152;49.202;18.744;2023-01-28T14:40:01;23.52;;;15.00;;
70588;SDS011;58152;49.202;18.744;2023-01-28T14:42:33;23.42;;;13.85;;
70588;SDS011;58152;49.202;18.744;2023-01-28T14:56:35;26.45;;;14.73;;
70588;SDS011;58152;49.202;18.744;2023-01-28T14:59:15;29.33;;;16.85;;
70588;SDS011;58152;49.202;18.744;2023-01-28T15:02:18;26.80;;;15.52;;
70588;SDS011;58152;49.202;18.744;2023-01-28T15:04:45;28.10;;;15.63;;
70588;SDS011;58152;49.202;18.744;2023-01-28T15:07:22;28.95;;;15.90;;
70588;SDS011;58152;49.202;18.744;2023-01-28T15:10:02;28.80;;;15.27;;
70588;SDS011;58152;49.202;18.744;2023-01-28T15:12:32;27.63;;;16.77;;
70588;SDS011;58152;49.202;18.744;2023-01-28T15:17:45;28.10;;;15.75;;
70588;SDS011;58152;49.202;18.744;2023-01-28T15:20:16;27.85;;;16.00;;
70588;SDS011;58152;49.202;18.744;2023-01-28T15:22:44;25.33;;;14.88;;
70588;SDS011;58152;49.202;18.744;2023-01-28T15:25:20;24.90;;;14.90;;
70588;SDS011;58152;49.202;18.744;2023-01-28T15:27:47;25.25;;;14.82;;
70588;SDS011;58152;49.202;18.744;2023-01-28T15:30:22;25.52;;;14.68;;
70588;SDS011;58152;49.202;18.744;2023-01-28T15:35:32;47.67;;;25.77;;
70588;SDS011;58152;49.202;18.744;2023-01-28T15:38:03;158.45;;;92.63;;
70588;SDS011;58152;49.202;18.744;2023-01-28T15:40:28;306.65;;;183.30;;
70588;SDS011;58152;49.202;18.744;2023-01-28T15:42:55;156.25;;;91.03;;
70588;SDS011;58152;49.202;18.744;2023-01-28T15:45:23;81.57;;;48.97;;
70588;SDS011;58152;49.202;18.744;2023-01-28T15:47:50;48.63;;;28.63;;
70588;SDS011;58152;49.202;18.744;2023-01-28T15:50:25;39.27;;;21.07;;
70588;SDS011;58152;49.202;18.744;2023-01-28T15:52:51;27.50;;;16.58;;
70588;SDS011;58152;49.202;18.744;2023-01-28T15:57:51;27.00;;;14.27;;
70588;SDS011;58152;49.202;18.744;2023-01-28T16:00:19;23.35;;;13.55;;
70588;SDS011;58152;49.202;18.744;2023-01-28T16:02:49;24.65;;;14.35;;
70588;SDS011;58152;49.202;18.744;2023-01-28T16:05:23;22.80;;;13.68;;
70588;SDS011;58152;49.202;18.744;2023-01-28T16:07:53;21.92;;;13.43;;
70588;SDS011;58152;49.202;18.744;2023-01-28T16:10:21;26.00;;;13.93;;
70588;SDS011;58152;49.202;18.744;2023-01-28T16:12:59;20.02;;;12.10;;
70588;SDS011;58152;49.202;18.744;2023-01-28T16:15:30;21.45;;;12.93;;
70588;SDS011;58152;49.202;18.744;2023-01-28T16:17:56;24.77;;;14.88;;
70588;SDS011;58152;49.202;18.744;2023-01-28T16:20:25;23.67;;;13.00;;
70588;SDS011;58152;49.202;18.744;2023-01-28T16:22:53;24.58;;;12.98;;
70588;SDS011;58152;49.202;18.744;2023-01-28T16:25:34;24.38;;;14.23;;
70588;SDS011;58152;49.202;18.744;2023-01-28T16:28:10;19.45;;;11.40;;
70588;SDS011;58152;49.202;18.744;2023-01-28T16:30:41;19.88;;;12.25;;
70588;SDS011;58152;49.202;18.744;2023-01-28T16:33:15;19.58;;;11.57;;
70588;SDS011;58152;49.202;18.744;2023-01-28T16:35:43;22.73;;;11.88;;
70588;SDS011;58152;49.202;18.744;2023-01-28T16:38:08;19.10;;;11.00;;
70588;SDS011;58152;49.202;18.744;2023-01-28T16:40:34;20.70;;;12.18;;
70588;SDS011;58152;49.202;18.744;2023-01-28T16:43:02;21.63;;;12.00;;
70588;SDS011;58152;49.202;18.744;2023-01-28T16:45:28;19.95;;;11.70;;
70588;SDS011;58152;49.202;18.744;2023-01-28T16:47:53;17.98;;;10.85;;
70588;SDS011;58152;49.202;18.744;2023-01-28T16:50:19;17.77;;;11.60;;
70588;SDS011;58152;49.202;18.744;2023-01-28T16:52:46;19.13;;;11.10;;